Portada
METAR-TAF:

METAR-TAF

Aeropuertos :

Alton / San Luis, Illinois, Estados Unidos

latitud: 38-54N, longitud: 090-03W, altitud: 166 m

Observación

El informe se hizo hace 51 minutos, a las 19:50 UTC
Viento 9 kt del sur-suroeste
Temperatura 32°C
Humedad 43%
Presión 1022 hPa
Visibilidad: 16.1 km
Nubes dispersas a una altura de 6000 ft

METAR: KALN 191950Z 21009KT 10SM SCT060 32/18 A3018

Hora: 15:41 (20:41 UTC)


TAF: falta

Observaciones y pronósticos meteorológicos de más de 4000 aeropuertos (mensajes METAR y TAF).

Los puntos amarillos y rojos representan las estaciones disponibles.

Ponga el ratón en el punto deseado para ver el nombre de la estación.

Haga clic para ver las observaciones y los pronósticos meteorológicos.

Para cambiar el mapa : haga clic en los botones verdes con una cruz de color negro para hacer un zoom, en el botón verde con un guión para alejar o en las flechas verdes para mapas adyacentes.


METAR-TAF: